עמוד ראשי
METAR-TAF:

METAR-TAF

שדות תעופה :

Antofagasta, צ'ילה

קו רוחב: 23-26S, קו אורך: 070-26W, גובה: 135מטר

תצפית מזג אוויר נוכחית

הדו"ח נערך לפני 1 שעות ו 4דקות, בשעה 01:00 UTC
רוח 5קשר מכיוון דרום
טמפרטורת 15 צלסיוס
לחות 77%
לחץ 1016 hPa
ראות 10 קילומטר או יותר
מעונן בגובה 1800רגל

METAR: SCFA 200100Z 18005KT 9999 OVC018 15/11 Q1016 NOSIG

זמן: 22:04 (02:04 UTC)

תחזית

הדו"ח נערך לפני 3 שעות ו 44דקות, בשעה 22:20 UTC
תחזית בתוקף מ 20 ב 00 UTC עד 20 ב 24 UTC
רוח 10קשר מכיוון דרום/דרום-מערב
ראות 10 קילומטר או יותר
עננים בינוניים בגובה 2000רגל
יעשה מ
20 ב 03 UTC עד 20 ב 05 UTC
רוח 4קשר מכיוון דרום-מזרח
יעשה מ
20 ב 15 UTC עד 20 ב 17 UTC
רוח 12קשר מכיוון דרום/דרום-מערב
מעט עננים בגובה 2500רגל
יעשה מ
20 ב 22 UTC עד 20 ב 24 UTC
עננים בינוניים בגובה 2000רגל

TAF: SCFA 192220Z 2000/2024 20010KT 9999 BKN020 TN13/2010Z TX17/2018Z BECMG 2003/2005 14004KT BECMG 2015/2017 20012KT FEW025 BECMG 2022/2024 BKN020

תצפיות ותחזיות מזג אוויר לגבי יותר מ- 4,000 שדות תעופה ברחבי העולם. דוחות METAR ו- TAF.

התחנות הזמינות מסומנות בנקודות צהובות ואדומות על גבי המפה.

העבר את העכבר לנקודה הצבעונית על מנת לראות את שם התחנה.

לאחר מכן, לחץ כדי לראות את תוכן ואת תחזיות מזג האוויר.

כדי לשנות את המפה: לחץ על הכפתורים הירוקים עם הפלוס השחור כדי להתקרב; על הכפתור הירוק עם המקף כדי להתרחק; או בחיצים הירוקים למפות סמוכות.


METAR-TAF: